createdAt,value
2019-04-28T04:31:06.581Z,86.40
2019-04-28T04:33:34.608Z,87.50
2019-04-28T04:36:02.603Z,86.60
2019-04-28T04:38:31.668Z,88.00
2019-04-28T04:41:01.929Z,85.80
2019-04-28T04:43:31.225Z,87.10
2019-04-28T04:46:14.130Z,87.20
2019-04-28T04:48:43.361Z,89.00
2019-04-28T04:51:20.968Z,84.70
2019-04-28T04:54:20.894Z,84.40
2019-04-28T04:57:40.691Z,84.30
2019-04-28T04:59:33.793Z,85.30
2019-04-28T05:02:34.346Z,87.20
2019-04-28T05:08:15.528Z,83.40
2019-04-28T05:10:42.822Z,83.40
2019-04-28T05:13:12.123Z,81.30
2019-04-28T05:15:41.115Z,81.80
2019-04-28T05:18:10.264Z,81.00
2019-04-28T05:23:56.022Z,80.30
2019-04-28T05:26:30.056Z,81.70
2019-04-28T05:28:59.524Z,80.70
2019-04-28T05:31:29.733Z,79.10
2019-04-28T05:33:59.916Z,79.70
2019-04-28T05:36:40.760Z,81.00
2019-04-28T05:39:05.831Z,84.70
2019-04-28T05:41:34.730Z,83.00
2019-04-28T05:44:11.565Z,83.50
2019-04-28T05:46:40.278Z,84.00
2019-04-28T05:49:11.082Z,84.20
2019-04-28T05:52:11.845Z,84.80
2019-04-28T05:54:32.489Z,84.10
2019-04-28T05:57:02.602Z,84.80
2019-04-28T05:59:50.564Z,84.20
2019-04-28T06:02:21.915Z,83.30
2019-04-28T06:05:01.071Z,85.30
2019-04-28T06:07:32.231Z,82.70
2019-04-28T06:10:00.302Z,81.30
2019-04-28T06:15:39.733Z,78.00
2019-04-28T06:18:07.740Z,77.50
2019-04-28T06:20:35.827Z,79.20
2019-04-28T06:23:03.931Z,78.80
2019-04-28T06:25:31.943Z,79.30
2019-04-28T06:27:59.989Z,81.00
2019-04-28T06:30:28.061Z,81.10
2019-04-28T06:33:07.189Z,79.20
2019-04-28T06:35:25.809Z,80.80
2019-04-28T06:37:53.814Z,80.10
2019-04-28T06:40:21.785Z,81.80
2019-04-28T06:42:49.961Z,84.10
2019-04-28T06:45:18.106Z,79.50
2019-04-28T06:47:46.134Z,80.90
2019-04-28T06:50:14.242Z,80.70
2019-04-28T06:52:42.255Z,80.70
2019-04-28T06:55:10.225Z,84.20
2019-04-28T06:57:38.333Z,81.10
2019-04-28T07:00:07.361Z,81.90
2019-04-28T07:02:35.906Z,81.60
2019-04-28T07:05:05.306Z,82.50
2019-04-28T07:07:33.482Z,82.90
2019-04-28T07:10:01.706Z,84.10
2019-04-28T07:12:29.831Z,82.70
2019-04-28T07:14:57.869Z,81.60
2019-04-28T07:17:25.861Z,80.90
2019-04-28T07:20:04.270Z,81.40
2019-04-28T07:22:33.049Z,82.70
2019-04-28T07:25:01.026Z,86.00
2019-04-28T07:27:29.033Z,84.30
2019-04-28T07:29:57.015Z,84.10
2019-04-28T07:32:25.306Z,87.00
2019-04-28T07:34:53.341Z,85.30
2019-04-28T07:37:21.330Z,87.30
2019-04-28T07:39:49.305Z,85.00
2019-04-28T07:42:17.301Z,85.40
2019-04-28T07:44:45.354Z,83.60
2019-04-28T07:47:13.434Z,83.70
2019-04-28T07:49:41.435Z,82.80
2019-04-28T07:52:11.215Z,84.10
2019-04-28T07:54:40.176Z,83.20
2019-04-28T07:57:08.285Z,82.00
2019-04-28T07:59:36.305Z,82.10
2019-04-28T08:02:04.453Z,81.90
2019-04-28T08:04:32.571Z,82.20
2019-04-28T08:07:00.604Z,82.80
2019-04-28T08:09:28.585Z,80.80
2019-04-28T08:11:56.564Z,79.30
2019-04-28T08:14:24.553Z,77.90
2019-04-28T08:16:52.554Z,79.40
2019-04-28T08:19:20.546Z,78.30
2019-04-28T08:21:48.527Z,77.20
2019-04-28T08:24:16.538Z,78.90
2019-04-28T08:26:44.601Z,79.70
2019-04-28T08:29:12.576Z,80.10
2019-04-28T08:31:42.191Z,82.20
2019-04-28T08:34:11.976Z,81.00
2019-04-28T08:36:40.030Z,81.90
2019-04-28T08:39:08.077Z,81.00
2019-04-28T08:41:36.071Z,80.50
2019-04-28T08:44:04.054Z,80.80
2019-04-28T08:46:32.127Z,78.40
2019-04-28T08:49:00.149Z,78.10
2019-04-28T08:51:28.230Z,77.60
2019-04-28T08:53:56.330Z,80.40
2019-04-28T08:56:24.390Z,79.00
2019-04-28T08:58:52.391Z,80.40
2019-04-28T09:01:20.660Z,83.50
2019-04-28T09:03:48.723Z,87.00
2019-04-28T09:06:16.699Z,86.40
2019-04-28T09:08:44.731Z,86.70
2019-04-28T09:11:12.719Z,85.00
2019-04-28T09:13:43.681Z,80.80
2019-04-28T09:16:10.529Z,79.70
2019-04-28T09:18:38.543Z,77.80
2019-04-28T09:21:06.566Z,77.70
2019-04-28T09:23:34.659Z,76.10
2019-04-28T09:26:02.732Z,76.40
2019-04-28T09:28:30.810Z,74.20
2019-04-28T09:30:58.889Z,74.10
2019-04-28T09:33:26.909Z,76.50
2019-04-28T09:35:54.994Z,72.00
2019-04-28T09:38:22.980Z,72.70
2019-04-28T09:40:51.019Z,71.20
2019-04-28T09:43:23.569Z,70.40
2019-04-28T09:45:53.215Z,66.40
2019-04-28T09:48:21.285Z,68.10
2019-04-28T09:50:49.298Z,68.40
2019-04-28T09:53:17.304Z,71.70
2019-04-28T09:55:45.386Z,66.30
2019-04-28T09:58:13.478Z,68.00
2019-04-28T10:00:41.566Z,66.70
2019-04-28T10:03:09.565Z,64.30
2019-04-28T10:05:37.560Z,87.40
2019-04-28T10:08:05.606Z,92.30
2019-04-28T10:10:33.648Z,92.10
2019-04-28T10:13:01.641Z,92.20
2019-04-28T10:15:29.627Z,90.70
2019-04-28T10:17:57.610Z,91.00
2019-04-28T10:20:25.603Z,88.20
2019-04-28T10:22:53.730Z,90.40
2019-04-28T10:25:21.924Z,88.20
2019-04-28T10:27:49.976Z,86.30
2019-04-28T10:30:18.049Z,83.30
2019-04-28T10:32:46.037Z,80.80
2019-04-28T10:35:14.107Z,79.60
2019-04-28T10:37:42.104Z,80.10
2019-04-28T10:40:20.854Z,78.30
2019-04-28T10:42:48.849Z,77.10
2019-04-28T10:45:18.781Z,71.70
2019-04-28T10:47:46.915Z,70.70
2019-04-28T10:50:21.372Z,66.70
2019-04-28T10:52:50.686Z,71.40
2019-04-28T10:55:20.097Z,67.70
2019-04-28T10:57:48.908Z,66.50
2019-04-28T11:00:18.958Z,70.30
2019-04-28T11:02:47.019Z,66.70
2019-04-28T11:05:32.995Z,65.80
2019-04-28T11:08:02.236Z,65.40
2019-04-28T11:10:30.245Z,67.40
2019-04-28T11:12:58.303Z,64.90
2019-04-28T11:15:37.194Z,62.60
2019-04-28T11:18:07.094Z,62.70
2019-04-28T11:20:35.924Z,60.30
2019-04-28T11:23:04.074Z,62.60
2019-04-28T11:25:32.095Z,61.20
2019-04-28T11:28:00.366Z,57.40
2019-04-28T11:30:30.287Z,55.20
2019-04-28T11:33:16.515Z,55.80
2019-04-28T11:35:46.409Z,58.80
2019-04-28T11:38:15.671Z,57.20
2019-04-28T11:40:45.780Z,55.60
2019-04-28T11:43:15.086Z,59.30
2019-04-28T11:45:43.789Z,59.70
2019-04-28T11:48:13.343Z,57.80
2019-04-28T11:50:41.846Z,58.20
2019-04-28T11:53:12.426Z,56.80
2019-04-28T11:55:41.945Z,58.00
2019-04-28T11:58:11.639Z,57.80
2019-04-28T12:00:40.818Z,58.20
2019-04-28T12:03:09.113Z,56.30
2019-04-28T12:05:40.006Z,54.40
2019-04-28T12:08:13.284Z,54.60
2019-04-28T12:10:47.581Z,52.80
2019-04-28T12:13:17.727Z,54.30
2019-04-28T12:16:06.111Z,51.90
2019-04-28T12:18:56.227Z,53.70
2019-04-28T12:21:26.696Z,51.90
2019-04-28T12:23:56.482Z,54.90
2019-04-28T12:26:27.019Z,52.50
2019-04-28T12:28:55.347Z,53.90
2019-04-28T12:31:24.047Z,53.40
2019-04-28T12:33:52.387Z,50.70
2019-04-28T12:36:21.374Z,54.30
2019-04-28T12:38:52.710Z,56.70
2019-04-28T12:41:21.359Z,55.90
2019-04-28T12:43:49.768Z,56.80
2019-04-28T12:46:18.246Z,64.50
2019-04-28T12:48:46.854Z,86.80
2019-04-28T12:51:15.967Z,93.60
2019-04-28T12:53:44.349Z,96.50
2019-04-28T12:56:12.888Z,97.50
2019-04-28T12:58:41.112Z,98.10
2019-04-28T13:01:13.562Z,96.20
2019-04-28T13:03:43.311Z,99.10
2019-04-28T13:06:12.957Z,95.90
2019-04-28T13:08:41.547Z,94.60
2019-04-28T13:11:09.968Z,98.20
2019-04-28T13:13:38.033Z,96.40
2019-04-28T13:16:06.182Z,96.60
2019-04-28T13:18:34.278Z,94.20
2019-04-28T13:21:02.343Z,95.20
2019-04-28T13:23:30.467Z,95.20
2019-04-28T13:25:58.703Z,94.10
2019-04-28T13:28:28.718Z,92.50
2019-04-28T13:30:57.088Z,93.10
2019-04-28T13:33:25.186Z,91.00
2019-04-28T13:35:53.276Z,90.10
2019-04-28T13:38:21.369Z,90.10
2019-04-28T13:40:50.109Z,82.70
2019-04-28T13:43:18.309Z,83.50
2019-04-28T13:45:47.182Z,83.90
2019-04-28T13:48:15.929Z,78.90
2019-04-28T13:50:45.383Z,77.50
2019-04-28T13:53:13.726Z,77.00
2019-04-28T13:55:43.724Z,79.60
2019-04-28T13:58:12.575Z,77.30
2019-04-28T14:00:42.874Z,78.30
2019-04-28T14:03:21.753Z,76.60
2019-04-28T14:06:00.391Z,76.20
2019-04-28T14:08:28.592Z,75.00
2019-04-28T14:10:56.834Z,75.90
2019-04-28T14:13:25.014Z,72.30
2019-04-28T14:15:53.200Z,73.70
2019-04-28T14:18:21.337Z,71.40
2019-04-28T14:20:49.760Z,73.20
2019-04-28T14:23:17.964Z,71.80
2019-04-28T14:25:46.265Z,73.30
2019-04-28T14:28:14.785Z,72.30
2019-04-28T14:30:42.970Z,68.30
2019-04-28T14:33:11.281Z,67.60
2019-04-28T14:35:39.652Z,69.30
2019-04-28T14:38:10.395Z,70.30
2019-04-28T14:40:38.700Z,66.10
2019-04-28T14:43:07.078Z,64.30
2019-04-28T14:45:35.278Z,64.30
2019-04-28T14:48:03.427Z,66.40
2019-04-28T14:50:31.819Z,63.30
2019-04-28T14:53:00.156Z,61.00
2019-04-28T14:55:28.349Z,67.00
2019-04-28T14:57:56.531Z,65.20
2019-04-28T15:00:32.247Z,61.50
2019-04-28T15:03:04.860Z,60.60
2019-04-28T15:05:39.233Z,65.00
2019-04-28T15:08:17.936Z,62.20
2019-04-28T15:10:47.818Z,60.20
2019-04-28T15:13:16.902Z,61.90
2019-04-28T15:15:45.020Z,62.40
2019-04-28T15:18:13.184Z,60.90
2019-04-28T15:20:41.275Z,64.00
2019-04-28T15:23:09.360Z,63.90
2019-04-28T15:25:37.460Z,65.80
2019-04-28T15:28:05.489Z,64.30
2019-04-28T15:30:33.612Z,65.40
2019-04-28T15:33:01.745Z,63.20
2019-04-28T15:35:29.738Z,65.80
2019-04-28T15:37:57.733Z,62.90
2019-04-28T15:40:25.741Z,62.90
2019-04-28T15:42:53.740Z,63.50
2019-04-28T15:45:21.799Z,62.80
2019-04-28T15:47:49.795Z,62.80
2019-04-28T15:50:17.809Z,66.20
2019-04-28T15:52:45.879Z,62.00
2019-04-28T15:55:15.611Z,61.70
2019-04-28T15:57:43.589Z,63.50
2019-04-28T16:00:13.566Z,62.10
2019-04-28T16:02:41.564Z,60.10
2019-04-28T16:05:09.641Z,63.10
2019-04-28T16:07:37.626Z,62.20
2019-04-28T16:10:06.109Z,60.50
2019-04-28T16:12:34.200Z,60.00
2019-04-28T16:15:02.285Z,60.90
2019-04-28T16:17:30.264Z,61.30
2019-04-28T16:19:58.354Z,60.60
2019-04-28T16:22:26.360Z,61.50
2019-04-28T16:24:54.460Z,61.40
2019-04-28T16:27:22.435Z,60.90
2019-04-28T16:29:50.430Z,58.60
2019-04-28T16:32:18.580Z,58.90
2019-04-28T16:34:46.771Z,62.20
2019-04-28T16:37:14.827Z,60.60
2019-04-28T16:39:42.819Z,56.60
2019-04-28T16:42:11.627Z,58.90
2019-04-28T16:44:39.711Z,58.00
2019-04-28T16:47:13.270Z,57.60
2019-04-28T16:49:41.406Z,56.50
2019-04-28T16:52:09.400Z,63.00
2019-04-28T16:54:37.447Z,59.40
2019-04-28T16:57:07.199Z,58.90
2019-04-28T16:59:55.367Z,59.40
2019-04-28T17:02:25.002Z,58.60
2019-04-28T17:04:52.989Z,58.60
2019-04-28T17:07:21.048Z,63.80
2019-04-28T17:09:49.045Z,60.70
2019-04-28T17:12:17.157Z,60.90
2019-04-28T17:14:45.224Z,62.50
2019-04-28T17:17:13.225Z,61.30
2019-04-28T17:19:41.289Z,65.70
2019-04-28T17:22:09.319Z,62.80
2019-04-28T17:24:37.416Z,62.20
2019-04-28T17:27:05.521Z,62.30
2019-04-28T17:29:34.066Z,61.70
2019-04-28T17:32:02.063Z,66.70
2019-04-28T17:34:30.164Z,62.00
2019-04-28T17:36:58.258Z,61.80
2019-04-28T17:39:26.721Z,60.70
2019-04-28T17:41:54.809Z,62.30
2019-04-28T17:44:22.939Z,60.70
2019-04-28T17:46:51.158Z,63.10
2019-04-28T17:49:21.018Z,62.40
2019-04-28T17:51:49.242Z,62.70
2019-04-28T17:54:17.380Z,64.30
2019-04-28T17:56:45.499Z,62.80
2019-04-28T17:59:13.606Z,63.80
2019-04-28T18:01:49.072Z,64.70
2019-04-28T18:04:35.236Z,63.10
2019-04-28T18:07:07.474Z,65.20
2019-04-28T18:09:35.551Z,66.10
2019-04-28T18:12:03.769Z,65.70
2019-04-28T18:14:32.097Z,65.40
2019-04-28T18:17:01.817Z,65.00
2019-04-28T18:19:30.465Z,67.60
2019-04-28T18:21:58.569Z,67.20
2019-04-28T18:24:26.653Z,69.80
2019-04-28T18:26:54.884Z,69.00
2019-04-28T18:29:24.049Z,71.40
2019-04-28T18:32:10.447Z,70.60
2019-04-28T18:34:49.015Z,70.90
2019-04-28T18:37:35.269Z,71.00
2019-04-28T18:40:06.193Z,69.20
2019-04-28T18:42:44.724Z,68.30
2019-04-28T18:45:13.118Z,69.60
2019-04-28T18:47:41.213Z,70.20
2019-04-28T18:50:09.395Z,71.10
2019-04-28T18:52:37.406Z,70.30
2019-04-28T18:55:06.562Z,70.70
2019-04-28T18:57:34.677Z,71.30
2019-04-28T19:00:03.005Z,69.50
2019-04-28T19:02:32.777Z,71.30
2019-04-28T19:05:00.898Z,69.60
2019-04-28T19:07:33.578Z,70.10
2019-04-28T19:10:03.385Z,70.30
2019-04-28T19:12:38.882Z,69.70
2019-04-28T19:15:08.672Z,70.40
2019-04-28T19:17:54.773Z,69.40
2019-04-28T19:20:22.898Z,70.60
2019-04-28T19:22:51.058Z,71.20
2019-04-28T19:25:20.346Z,71.40
2019-04-28T19:27:48.443Z,72.20
2019-04-28T19:30:17.129Z,72.30
2019-04-28T19:32:45.294Z,72.00
2019-04-28T19:35:14.678Z,73.20
2019-04-28T19:37:42.876Z,73.90
2019-04-28T19:40:11.185Z,74.80
2019-04-28T19:42:39.212Z,74.10
2019-04-28T19:45:11.763Z,73.10
2019-04-28T19:47:38.574Z,71.90
2019-04-28T19:50:06.807Z,71.80
2019-04-28T19:52:35.282Z,71.20
2019-04-28T19:55:06.065Z,73.70
2019-04-28T19:57:48.254Z,76.50
2019-04-28T20:00:18.450Z,75.90
2019-04-28T20:02:48.244Z,77.70
2019-04-28T20:05:16.469Z,78.60
2019-04-28T20:07:44.941Z,80.30
2019-04-28T20:10:15.517Z,81.40
2019-04-28T20:12:45.764Z,83.60
2019-04-28T20:15:15.596Z,85.80
2019-04-28T20:17:46.313Z,87.40
2019-04-28T20:20:17.559Z,88.40
2019-04-28T20:22:47.057Z,88.80
2019-04-28T20:25:15.389Z,90.50
2019-04-28T20:27:43.376Z,90.60
2019-04-28T20:30:11.708Z,88.40
2019-04-28T20:32:44.599Z,87.20
2019-04-28T20:35:14.457Z,85.70
2019-04-28T20:37:44.140Z,82.30
2019-04-28T20:40:15.152Z,83.40
2019-04-28T20:42:45.040Z,82.40
2019-04-28T20:45:15.243Z,82.80
2019-04-28T20:47:43.364Z,81.10
2019-04-28T20:50:12.634Z,80.80
2019-04-28T20:52:40.854Z,78.90
2019-04-28T20:55:09.158Z,78.60
2019-04-28T20:57:37.258Z,76.70
2019-04-28T21:00:26.082Z,75.80
2019-04-28T21:02:54.148Z,76.30
2019-04-28T21:05:22.162Z,75.50
2019-04-28T21:07:50.238Z,75.90
2019-04-28T21:10:18.525Z,76.90
2019-04-28T21:12:46.575Z,75.60
2019-04-28T21:15:15.061Z,76.10
2019-04-28T21:17:43.131Z,76.30
2019-04-28T21:20:11.134Z,77.40
2019-04-28T21:22:39.189Z,78.40
2019-04-28T21:25:07.293Z,77.70
2019-04-28T21:27:35.440Z,76.50
2019-04-28T21:30:03.758Z,76.40
2019-04-28T21:32:31.749Z,75.70
2019-04-28T21:34:59.743Z,75.50
2019-04-28T21:37:27.732Z,74.70
2019-04-28T21:39:55.789Z,74.10
2019-04-28T21:42:25.418Z,74.10
2019-04-28T21:45:00.771Z,76.10
2019-04-28T21:47:30.592Z,76.70
2019-04-28T21:49:58.703Z,77.50
2019-04-28T21:52:26.689Z,75.90
2019-04-28T21:54:54.671Z,78.30
2019-04-28T21:57:22.654Z,79.50
2019-04-28T21:59:50.657Z,79.50
2019-04-28T22:02:18.633Z,80.80
2019-04-28T22:04:47.097Z,81.40
2019-04-28T22:07:15.437Z,79.00
2019-04-28T22:09:43.416Z,80.90
2019-04-28T22:12:11.397Z,82.00
2019-04-28T22:14:39.375Z,81.90
2019-04-28T22:17:07.381Z,82.00
2019-04-28T22:19:35.357Z,82.30
2019-04-28T22:22:03.351Z,82.80
2019-04-28T22:24:33.038Z,81.00
2019-04-28T22:27:01.022Z,81.40
2019-04-28T22:29:29.001Z,82.10
2019-04-28T22:31:57.015Z,81.30
2019-04-28T22:34:25.184Z,82.40
2019-04-28T22:36:53.434Z,82.80
2019-04-28T22:39:21.468Z,83.70
2019-04-28T22:41:49.474Z,82.70
2019-04-28T22:44:17.456Z,83.10
2019-04-28T22:46:45.491Z,82.60
2019-04-28T22:49:13.734Z,83.40
2019-04-28T22:51:41.735Z,83.10
2019-04-28T22:54:17.188Z,84.00
2019-04-28T22:56:46.815Z,84.00
2019-04-28T22:59:28.227Z,84.70
